createdAt,value
2022-12-26T00:01:22.754Z,67.40
2022-12-26T00:03:50.882Z,67.40
2022-12-26T00:06:20.391Z,67.50
2022-12-26T00:08:48.411Z,67.70
2022-12-26T00:11:16.647Z,67.70
2022-12-26T00:13:44.800Z,67.30
2022-12-26T00:16:14.179Z,67.00
2022-12-26T00:18:43.503Z,66.70
2022-12-26T00:21:12.423Z,66.70
2022-12-26T00:23:40.361Z,67.00
2022-12-26T00:26:09.151Z,67.00
2022-12-26T00:28:37.258Z,66.90
2022-12-26T00:31:06.118Z,66.90
2022-12-26T00:33:34.888Z,66.90
2022-12-26T00:36:04.747Z,67.10
2022-12-26T00:38:32.799Z,67.40
2022-12-26T00:41:00.693Z,67.30
2022-12-26T00:43:28.764Z,67.20
2022-12-26T00:45:56.716Z,67.20
2022-12-26T00:48:25.261Z,67.20
2022-12-26T00:50:53.185Z,67.30
2022-12-26T00:53:22.921Z,67.60
2022-12-26T00:55:51.324Z,67.50
2022-12-26T00:58:19.470Z,67.10
2022-12-26T01:00:47.403Z,66.90
2022-12-26T01:03:15.435Z,66.80
2022-12-26T01:05:43.512Z,66.90
2022-12-26T01:08:19.887Z,67.00
2022-12-26T01:10:53.176Z,67.00
2022-12-26T01:13:21.139Z,66.90
2022-12-26T01:15:50.330Z,67.00
2022-12-26T01:18:18.274Z,67.80
2022-12-26T01:20:46.188Z,67.20
2022-12-26T01:23:14.140Z,67.40
2022-12-26T01:26:16.830Z,67.40
2022-12-26T01:28:32.180Z,67.10
2022-12-26T01:31:02.820Z,66.80
2022-12-26T01:33:30.935Z,66.80
2022-12-26T01:35:58.939Z,66.90
2022-12-26T01:38:26.927Z,67.00
2022-12-26T01:41:15.521Z,67.00
2022-12-26T01:43:56.060Z,66.90
2022-12-26T01:46:25.774Z,67.00
2022-12-26T01:48:53.695Z,67.00
2022-12-26T01:51:22.520Z,67.30
2022-12-26T01:53:52.717Z,67.40
2022-12-26T01:56:21.581Z,67.30
2022-12-26T01:58:51.118Z,67.30
2022-12-26T02:01:20.634Z,67.30
2022-12-26T02:04:06.072Z,67.30
2022-12-26T02:06:34.215Z,67.50
2022-12-26T02:09:02.170Z,67.60
2022-12-26T02:11:32.705Z,67.20
2022-12-26T02:14:00.654Z,66.80
2022-12-26T02:16:30.156Z,66.70
2022-12-26T02:18:58.181Z,66.70
2022-12-26T02:21:53.419Z,66.70
2022-12-26T02:24:52.416Z,66.90
2022-12-26T02:27:27.487Z,66.80
2022-12-26T02:30:17.565Z,66.90
2022-12-26T02:33:03.508Z,66.90
2022-12-26T02:35:43.550Z,67.10
2022-12-26T02:38:17.213Z,67.40
2022-12-26T02:40:51.095Z,67.30
2022-12-26T02:43:23.611Z,67.10
2022-12-26T02:46:13.494Z,67.30
2022-12-26T02:48:45.696Z,67.30
2022-12-26T02:51:36.669Z,67.40
2022-12-26T02:54:36.121Z,67.60
2022-12-26T02:57:22.699Z,67.30
2022-12-26T03:00:11.219Z,66.80
2022-12-26T03:02:58.553Z,66.70
2022-12-26T03:05:47.317Z,66.60
2022-12-26T03:08:36.784Z,66.90
2022-12-26T03:11:22.055Z,66.70
2022-12-26T03:13:50.051Z,66.80
2022-12-26T03:16:35.371Z,66.90
2022-12-26T03:19:04.663Z,67.00
2022-12-26T03:21:35.914Z,67.30
2022-12-26T03:24:03.837Z,67.30
2022-12-26T03:26:41.691Z,67.20
2022-12-26T03:29:28.257Z,67.20
2022-12-26T03:31:56.192Z,67.20
2022-12-26T03:34:24.150Z,67.70
2022-12-26T03:37:04.980Z,67.60
2022-12-26T03:39:50.052Z,67.40
2022-12-26T03:42:39.792Z,67.30
2022-12-26T03:45:30.106Z,67.40
2022-12-26T03:48:18.880Z,67.50
2022-12-26T03:51:05.077Z,67.70
2022-12-26T03:53:53.077Z,67.70
2022-12-26T03:56:40.002Z,67.20
2022-12-26T03:59:26.378Z,66.70
2022-12-26T04:02:11.900Z,66.70
2022-12-26T04:04:59.025Z,66.60
2022-12-26T04:07:56.642Z,66.90
2022-12-26T04:10:47.495Z,66.70
2022-12-26T04:13:35.149Z,66.80
2022-12-26T04:16:22.820Z,66.90
2022-12-26T04:19:11.502Z,67.00
2022-12-26T04:21:59.130Z,67.30
2022-12-26T04:24:46.771Z,67.20
2022-12-26T04:27:33.633Z,67.20
2022-12-26T04:30:19.275Z,67.30
2022-12-26T04:33:05.326Z,67.30
2022-12-26T04:35:52.085Z,67.60
2022-12-26T04:38:41.542Z,67.40
2022-12-26T04:41:27.435Z,68.00
2022-12-26T04:44:09.705Z,67.30
2022-12-26T04:46:39.998Z,67.40
2022-12-26T04:49:26.180Z,67.70
2022-12-26T04:51:54.200Z,67.60
2022-12-26T04:54:22.150Z,67.20
2022-12-26T04:56:50.030Z,66.80
2022-12-26T04:59:19.665Z,66.70
2022-12-26T05:02:05.644Z,66.70
2022-12-26T05:04:51.187Z,66.80
2022-12-26T05:07:38.186Z,66.60
2022-12-26T05:10:06.800Z,66.60
2022-12-26T05:12:34.726Z,66.70
2022-12-26T05:15:04.888Z,66.90
2022-12-26T05:17:50.444Z,67.00
2022-12-26T05:20:44.298Z,67.30
2022-12-26T05:23:36.365Z,67.30
2022-12-26T05:26:29.937Z,67.30
2022-12-26T05:28:59.961Z,67.20
2022-12-26T05:31:35.084Z,67.40
2022-12-26T05:34:05.933Z,67.70
2022-12-26T05:36:36.346Z,67.50
2022-12-26T05:39:04.426Z,67.10
2022-12-26T05:41:32.371Z,66.90
2022-12-26T05:44:00.368Z,67.60
2022-12-26T05:46:29.636Z,66.90
2022-12-26T05:48:57.697Z,67.10
2022-12-26T05:51:25.671Z,67.00
2022-12-26T05:53:53.600Z,67.00
2022-12-26T05:56:21.643Z,67.00
2022-12-26T05:58:55.245Z,67.20
2022-12-26T06:01:23.164Z,67.30
2022-12-26T06:03:53.408Z,67.60
2022-12-26T06:06:21.506Z,67.40
2022-12-26T06:08:49.802Z,67.00
2022-12-26T06:11:17.869Z,66.90
2022-12-26T06:13:45.892Z,66.90
2022-12-26T06:16:14.548Z,66.90
2022-12-26T06:18:42.510Z,67.20
2022-12-26T06:21:12.776Z,67.10
2022-12-26T06:23:40.779Z,67.10
2022-12-26T06:26:10.253Z,67.10
2022-12-26T06:28:38.793Z,67.30
2022-12-26T06:31:07.655Z,67.30
2022-12-26T06:33:35.577Z,67.60
2022-12-26T06:36:05.210Z,67.40
2022-12-26T06:38:34.806Z,67.30
2022-12-26T06:41:02.747Z,67.30
2022-12-26T06:43:30.617Z,67.40
2022-12-26T06:45:58.781Z,67.60
2022-12-26T06:48:27.039Z,67.70
2022-12-26T06:50:55.411Z,67.50
2022-12-26T06:53:23.380Z,67.10
2022-12-26T06:55:52.737Z,66.70
2022-12-26T06:58:20.712Z,66.60
2022-12-26T07:00:48.641Z,66.80
2022-12-26T07:03:16.567Z,67.10
2022-12-26T07:05:44.508Z,66.80
2022-12-26T07:08:12.419Z,66.90
2022-12-26T07:10:40.312Z,66.90
2022-12-26T07:13:09.589Z,67.00
2022-12-26T07:15:37.509Z,67.20
2022-12-26T07:18:05.582Z,67.40
2022-12-26T07:20:33.456Z,67.40
2022-12-26T07:23:01.355Z,67.60
2022-12-26T07:25:29.258Z,67.60
2022-12-26T07:27:57.189Z,67.70
2022-12-26T07:30:26.502Z,67.80
2022-12-26T07:32:54.437Z,68.00
2022-12-26T07:35:22.361Z,67.70
2022-12-26T07:37:50.317Z,68.10
2022-12-26T07:40:18.221Z,67.00
2022-12-26T07:42:46.127Z,66.50
2022-12-26T07:45:14.068Z,66.10
2022-12-26T07:47:44.400Z,65.60
2022-12-26T07:50:12.349Z,65.20
2022-12-26T07:52:40.227Z,64.70
2022-12-26T07:55:08.883Z,64.40
2022-12-26T07:57:48.747Z,64.10
2022-12-26T08:00:18.839Z,63.90
2022-12-26T08:02:48.555Z,63.80
2022-12-26T08:05:16.819Z,63.90
2022-12-26T08:07:44.704Z,64.10
2022-12-26T08:10:12.681Z,64.60
2022-12-26T08:12:40.576Z,65.20
2022-12-26T08:15:10.416Z,65.40
2022-12-26T08:17:38.346Z,65.50
2022-12-26T08:20:08.733Z,65.70
2022-12-26T08:22:36.641Z,65.90
2022-12-26T08:25:05.208Z,66.40
2022-12-26T08:27:33.072Z,66.60
2022-12-26T08:30:00.985Z,66.50
2022-12-26T08:32:28.913Z,66.60
2022-12-26T08:34:56.835Z,66.70
2022-12-26T08:37:26.123Z,66.90
2022-12-26T08:39:54.015Z,67.20
2022-12-26T08:42:22.061Z,67.00
2022-12-26T08:44:49.994Z,66.70
2022-12-26T08:47:17.999Z,66.40
2022-12-26T08:49:45.947Z,66.30
2022-12-26T08:52:13.893Z,66.30
2022-12-26T08:54:43.129Z,66.80
2022-12-26T08:57:10.997Z,66.70
2022-12-26T08:59:39.279Z,66.60
2022-12-26T09:02:07.363Z,66.70
2022-12-26T09:04:35.566Z,66.60
2022-12-26T09:07:03.472Z,67.00
2022-12-26T09:09:31.691Z,67.20
2022-12-26T09:12:00.937Z,67.10
2022-12-26T09:14:28.819Z,67.10
2022-12-26T09:16:56.720Z,67.00
2022-12-26T09:19:24.716Z,67.20
2022-12-26T09:22:13.885Z,67.60
2022-12-26T09:24:41.734Z,67.50
2022-12-26T09:27:11.126Z,67.20
2022-12-26T09:29:39.263Z,67.00
2022-12-26T09:32:07.250Z,66.70
2022-12-26T09:34:35.149Z,66.70
2022-12-26T09:37:03.137Z,66.90
2022-12-26T09:39:31.036Z,66.90
2022-12-26T09:42:03.657Z,66.80
2022-12-26T09:44:42.910Z,67.00
2022-12-26T09:47:21.365Z,67.00
2022-12-26T09:49:56.518Z,67.40
2022-12-26T09:52:25.757Z,67.40
2022-12-26T09:54:54.728Z,67.30
2022-12-26T09:57:26.810Z,67.30
2022-12-26T09:59:57.913Z,67.30
2022-12-26T10:02:26.591Z,67.40
2022-12-26T10:04:54.925Z,67.70
2022-12-26T10:07:26.013Z,67.50
2022-12-26T10:09:58.949Z,67.20
2022-12-26T10:12:46.404Z,66.90
2022-12-26T10:15:25.293Z,66.70
2022-12-26T10:17:56.390Z,66.70
2022-12-26T10:20:28.139Z,66.90
2022-12-26T10:23:10.641Z,66.90
2022-12-26T10:25:43.316Z,66.90
2022-12-26T10:28:17.023Z,66.90
2022-12-26T10:30:46.307Z,67.00
2022-12-26T10:33:17.572Z,67.40
2022-12-26T10:35:46.009Z,67.30
2022-12-26T10:38:16.960Z,67.10
2022-12-26T10:40:46.051Z,67.20
2022-12-26T10:43:22.646Z,68.00
2022-12-26T10:45:56.932Z,67.30
2022-12-26T10:48:27.731Z,67.50
2022-12-26T10:50:55.638Z,67.40
2022-12-26T10:53:24.389Z,67.10
2022-12-26T10:55:52.303Z,66.80
2022-12-26T10:58:21.421Z,66.70
2022-12-26T11:00:49.452Z,66.90
2022-12-26T11:03:19.773Z,67.00
2022-12-26T11:06:06.879Z,66.90
2022-12-26T11:08:43.125Z,66.70
2022-12-26T11:11:14.458Z,66.90
2022-12-26T11:13:47.823Z,67.00
2022-12-26T11:16:15.746Z,67.30
2022-12-26T11:18:49.428Z,67.20
2022-12-26T11:21:23.168Z,67.20
2022-12-26T11:23:52.379Z,67.10
2022-12-26T11:26:22.536Z,67.30
2022-12-26T11:28:50.864Z,67.40
2022-12-26T11:31:24.162Z,67.50
2022-12-26T11:33:53.477Z,67.40
2022-12-26T11:36:22.875Z,67.00
2022-12-26T11:38:52.976Z,66.70
2022-12-26T11:41:33.360Z,66.60
2022-12-26T11:44:05.572Z,66.90
2022-12-26T11:46:35.323Z,66.90
2022-12-26T11:49:04.683Z,66.80
2022-12-26T11:51:37.435Z,66.80
2022-12-26T11:54:19.997Z,66.90
2022-12-26T11:56:47.977Z,67.00
2022-12-26T11:59:19.033Z,67.30
2022-12-26T12:01:47.172Z,67.20
2022-12-26T12:04:17.257Z,67.10
2022-12-26T12:06:56.461Z,67.10
2022-12-26T12:09:31.764Z,67.20
2022-12-26T12:12:01.692Z,67.30
2022-12-26T12:14:35.995Z,67.60
2022-12-26T12:17:08.772Z,67.30
2022-12-26T12:19:46.312Z,66.90
2022-12-26T12:22:34.112Z,66.60
2022-12-26T12:25:09.771Z,66.60
2022-12-26T12:27:40.097Z,66.80
2022-12-26T12:30:19.310Z,66.80
2022-12-26T12:32:59.412Z,66.80
2022-12-26T12:35:39.925Z,66.70
2022-12-26T12:38:19.683Z,66.90
2022-12-26T12:40:50.579Z,67.50
2022-12-26T12:43:20.554Z,67.10
2022-12-26T12:45:57.397Z,67.00
2022-12-26T12:48:38.158Z,67.00
2022-12-26T12:51:11.329Z,67.10
2022-12-26T12:53:58.290Z,67.20
2022-12-26T12:56:29.350Z,67.40
2022-12-26T12:59:00.754Z,67.40
2022-12-26T13:01:32.278Z,67.20
2022-12-26T13:04:03.891Z,67.20
2022-12-26T13:06:37.603Z,67.20
2022-12-26T13:09:06.752Z,67.20
2022-12-26T13:11:36.738Z,67.50
2022-12-26T13:14:07.612Z,67.40
2022-12-26T13:16:43.312Z,67.00
2022-12-26T13:19:15.431Z,66.70
2022-12-26T13:21:44.693Z,66.60
2022-12-26T13:24:26.282Z,66.60
2022-12-26T13:26:59.156Z,66.80
2022-12-26T13:29:37.309Z,66.70
2022-12-26T13:32:06.502Z,66.60
2022-12-26T13:34:41.151Z,66.70
2022-12-26T13:37:10.434Z,66.90
2022-12-26T13:39:39.490Z,67.10
2022-12-26T13:42:40.837Z,67.10
2022-12-26T13:46:00.885Z,67.10
2022-12-26T13:48:57.184Z,67.90
2022-12-26T13:51:48.114Z,67.30
2022-12-26T13:54:18.069Z,67.50
2022-12-26T13:57:17.119Z,67.30
2022-12-26T13:59:50.136Z,67.40
2022-12-26T14:02:49.829Z,67.40
2022-12-26T14:05:19.767Z,67.30
2022-12-26T14:07:54.888Z,67.50
2022-12-26T14:10:27.659Z,67.50
2022-12-26T14:13:02.199Z,67.20
2022-12-26T14:15:37.105Z,66.90
2022-12-26T14:18:18.515Z,66.60
2022-12-26T14:20:49.836Z,66.60
2022-12-26T14:23:34.387Z,66.80
2022-12-26T14:26:06.733Z,66.70
2022-12-26T14:28:43.590Z,66.70
2022-12-26T14:31:16.353Z,66.70
2022-12-26T14:33:48.487Z,66.90
2022-12-26T14:36:25.084Z,67.00
2022-12-26T14:38:56.319Z,67.30
2022-12-26T14:41:44.029Z,67.10
2022-12-26T14:44:17.158Z,67.20
2022-12-26T14:47:00.242Z,67.20
2022-12-26T14:49:38.334Z,67.30
2022-12-26T14:52:37.477Z,67.50
2022-12-26T14:55:31.151Z,67.20
2022-12-26T14:58:05.659Z,67.30
2022-12-26T15:00:35.480Z,67.20
2022-12-26T15:03:23.990Z,67.40
2022-12-26T15:05:52.095Z,67.50
2022-12-26T15:08:49.191Z,67.60
2022-12-26T15:11:30.014Z,67.20
2022-12-26T15:14:30.205Z,66.80
2022-12-26T15:17:03.722Z,66.60
2022-12-26T15:19:59.180Z,66.60
2022-12-26T15:22:41.151Z,66.80
2022-12-26T15:25:49.185Z,66.70
2022-12-26T15:28:48.350Z,66.70
2022-12-26T15:31:34.143Z,66.90
2022-12-26T15:34:07.012Z,67.00
2022-12-26T15:36:41.212Z,67.40
2022-12-26T15:39:18.164Z,67.20
2022-12-26T15:41:47.943Z,67.20
2022-12-26T15:44:26.432Z,67.30
2022-12-26T15:47:15.106Z,67.30
2022-12-26T15:49:59.573Z,67.50
2022-12-26T15:52:34.402Z,67.50
2022-12-26T15:55:17.267Z,67.30
2022-12-26T15:57:50.100Z,66.80
2022-12-26T16:00:21.562Z,66.70
2022-12-26T16:03:04.353Z,66.70
2022-12-26T16:05:54.407Z,67.00
2022-12-26T16:08:45.561Z,67.00
2022-12-26T16:11:18.849Z,67.20
2022-12-26T16:13:58.223Z,66.90
2022-12-26T16:16:31.691Z,67.00
2022-12-26T16:19:15.517Z,67.20
2022-12-26T16:22:01.024Z,68.10
2022-12-26T16:24:28.988Z,67.20
2022-12-26T16:26:57.328Z,67.20
2022-12-26T16:29:25.236Z,67.20
2022-12-26T16:31:53.163Z,67.20
2022-12-26T16:34:22.448Z,67.60
2022-12-26T16:36:50.665Z,67.50
2022-12-26T16:39:22.443Z,67.10
2022-12-26T16:42:02.196Z,66.80
2022-12-26T16:44:32.866Z,67.40
2022-12-26T16:47:02.364Z,66.70
2022-12-26T16:49:32.181Z,67.00
2022-12-26T16:52:00.366Z,66.90
2022-12-26T16:54:30.690Z,66.80
2022-12-26T16:57:04.234Z,66.80
2022-12-26T16:59:45.401Z,66.90
2022-12-26T17:02:20.021Z,67.40
2022-12-26T17:04:58.667Z,67.40
2022-12-26T17:07:26.772Z,67.20
2022-12-26T17:09:55.626Z,67.00
2022-12-26T17:12:25.159Z,67.10
2022-12-26T17:14:53.443Z,67.20
2022-12-26T17:17:30.898Z,67.30
2022-12-26T17:20:29.828Z,67.50
2022-12-26T17:22:57.843Z,67.30
2022-12-26T17:25:27.785Z,66.80
2022-12-26T17:28:23.323Z,66.60
2022-12-26T17:30:53.172Z,66.50
2022-12-26T17:33:24.378Z,66.90
2022-12-26T17:38:42.437Z,66.60
2022-12-26T17:41:10.642Z,66.70
2022-12-26T17:43:39.264Z,66.80
2022-12-26T17:46:07.984Z,67.00
2022-12-26T17:48:35.988Z,67.40
2022-12-26T17:51:06.460Z,67.10
2022-12-26T17:53:35.235Z,67.00
2022-12-26T17:56:04.059Z,67.10
2022-12-26T17:58:31.993Z,67.10
2022-12-26T18:01:00.148Z,67.20
2022-12-26T18:03:28.290Z,67.50
2022-12-26T18:05:56.665Z,67.30
2022-12-26T18:08:30.506Z,67.00
2022-12-26T18:10:58.572Z,66.70
2022-12-26T18:13:26.447Z,66.50
2022-12-26T18:15:54.900Z,66.70
2022-12-26T18:18:28.952Z,66.90
2022-12-26T18:20:57.045Z,66.70
2022-12-26T18:23:25.131Z,66.80
2022-12-26T18:25:54.844Z,66.70
2022-12-26T18:28:22.800Z,66.90
2022-12-26T18:30:50.687Z,67.10
2022-12-26T18:33:18.591Z,67.20
2022-12-26T18:35:47.864Z,67.10
2022-12-26T18:38:15.903Z,67.00
2022-12-26T18:40:44.991Z,67.00
2022-12-26T18:43:14.275Z,67.10
2022-12-26T18:45:42.223Z,67.40
2022-12-26T18:48:15.117Z,67.20
2022-12-26T18:50:43.364Z,67.20
2022-12-26T18:53:11.242Z,67.10
2022-12-26T18:55:39.217Z,67.10
2022-12-26T18:58:07.182Z,67.20
2022-12-26T19:00:36.651Z,67.50
2022-12-26T19:03:04.768Z,67.40
2022-12-26T19:05:34.096Z,67.00
2022-12-26T19:08:02.579Z,66.70
2022-12-26T19:10:32.071Z,66.50
2022-12-26T19:13:05.649Z,66.30
2022-12-26T19:15:34.225Z,66.60
2022-12-26T19:18:03.578Z,66.60
2022-12-26T19:20:31.497Z,66.50
2022-12-26T19:22:59.384Z,66.50
2022-12-26T19:25:27.450Z,66.50
2022-12-26T19:27:55.361Z,66.60
2022-12-26T19:30:23.480Z,67.00
2022-12-26T19:32:51.626Z,67.00
2022-12-26T19:35:21.271Z,66.90
2022-12-26T19:37:49.215Z,66.80
2022-12-26T19:40:22.931Z,66.90
2022-12-26T19:42:52.600Z,67.10
2022-12-26T19:45:20.593Z,67.20
2022-12-26T19:47:48.487Z,67.20
2022-12-26T19:50:16.406Z,67.10
2022-12-26T19:52:45.628Z,67.10
2022-12-26T19:55:13.695Z,67.10
2022-12-26T19:57:41.659Z,67.20
2022-12-26T20:00:11.018Z,67.50
2022-12-26T20:02:41.811Z,67.40
2022-12-26T20:05:10.353Z,67.10
2022-12-26T20:07:38.422Z,66.70
2022-12-26T20:10:08.136Z,66.60
2022-12-26T20:12:36.027Z,66.50
2022-12-26T20:15:04.008Z,66.40
2022-12-26T20:17:31.960Z,66.60
2022-12-26T20:19:59.893Z,66.40
2022-12-26T20:22:28.120Z,66.40
2022-12-26T20:24:56.039Z,66.60
2022-12-26T20:27:25.351Z,66.80
2022-12-26T20:29:53.244Z,67.00
2022-12-26T20:32:21.131Z,67.00
2022-12-26T20:34:49.067Z,66.90
2022-12-26T20:37:18.019Z,66.90
2022-12-26T20:39:46.128Z,67.10
2022-12-26T20:42:16.285Z,67.10
2022-12-26T20:44:45.580Z,67.20
2022-12-26T20:47:13.560Z,67.30
2022-12-26T20:49:41.467Z,66.90
2022-12-26T20:52:09.464Z,66.70
2022-12-26T20:54:37.327Z,66.50
2022-12-26T20:57:05.208Z,66.60
2022-12-26T20:59:33.095Z,66.80
2022-12-26T21:02:02.431Z,66.80
2022-12-26T21:04:30.422Z,66.70
2022-12-26T21:06:58.363Z,66.70
2022-12-26T21:09:26.289Z,66.80
2022-12-26T21:11:54.198Z,67.00
2022-12-26T21:14:24.562Z,67.90
2022-12-26T21:16:53.328Z,67.00
2022-12-26T21:19:22.921Z,66.90
2022-12-26T21:21:52.470Z,67.00
2022-12-26T21:24:21.871Z,67.00
2022-12-26T21:26:49.958Z,67.20
2022-12-26T21:29:19.298Z,67.30
2022-12-26T21:31:47.545Z,67.10
2022-12-26T21:34:16.202Z,66.70
2022-12-26T21:37:06.120Z,66.40
2022-12-26T21:39:34.296Z,66.40
2022-12-26T21:42:02.348Z,66.50
2022-12-26T21:44:30.396Z,66.60
2022-12-26T21:46:58.363Z,66.40
2022-12-26T21:49:26.311Z,66.50
2022-12-26T21:51:55.545Z,66.70
2022-12-26T21:54:46.681Z,66.90
2022-12-26T21:57:16.990Z,66.90
2022-12-26T21:59:57.233Z,66.90
2022-12-26T22:02:43.063Z,66.90
2022-12-26T22:05:11.177Z,66.90
2022-12-26T22:07:40.451Z,66.90
2022-12-26T22:10:09.274Z,67.10
2022-12-26T22:12:54.487Z,67.00
2022-12-26T22:15:39.225Z,67.00
2022-12-26T22:18:07.167Z,66.60
2022-12-26T22:20:35.543Z,66.20
2022-12-26T22:23:04.853Z,66.10
2022-12-26T22:25:32.743Z,66.20
2022-12-26T22:28:00.771Z,66.40
2022-12-26T22:30:28.676Z,66.30
2022-12-26T22:32:56.570Z,66.40
2022-12-26T22:35:24.498Z,66.40
2022-12-26T22:37:52.461Z,66.50
2022-12-26T22:40:21.725Z,66.60
2022-12-26T22:42:49.650Z,66.80
2022-12-26T22:45:17.813Z,66.70
2022-12-26T22:47:45.704Z,66.70
2022-12-26T22:50:15.626Z,66.80
2022-12-26T22:52:43.518Z,66.90
2022-12-26T22:55:11.641Z,67.00
2022-12-26T22:57:40.915Z,67.10
2022-12-26T23:00:11.619Z,66.90
2022-12-26T23:02:40.031Z,66.50
2022-12-26T23:05:10.676Z,66.40
2022-12-26T23:07:39.075Z,66.40
2022-12-26T23:10:08.287Z,66.60
2022-12-26T23:12:45.490Z,66.70
2022-12-26T23:15:17.174Z,66.50
2022-12-26T23:18:05.114Z,66.50
2022-12-26T23:20:51.586Z,66.60
2022-12-26T23:23:20.302Z,66.80
2022-12-26T23:25:48.199Z,67.00
2022-12-26T23:28:33.420Z,66.80
2022-12-26T23:31:04.199Z,66.70
2022-12-26T23:33:32.517Z,66.90
2022-12-26T23:36:00.551Z,66.70
2022-12-26T23:38:28.443Z,66.90
2022-12-26T23:40:56.329Z,67.00
2022-12-26T23:43:24.200Z,66.90
2022-12-26T23:45:52.086Z,66.60
2022-12-26T23:48:21.342Z,66.30
2022-12-26T23:50:49.538Z,66.00
2022-12-26T23:53:17.476Z,66.00
2022-12-26T23:55:45.389Z,66.30
2022-12-26T23:58:13.265Z,66.40
